sensor_id;sensor_type;location;lat;lon;timestamp;pressure;altitude;pressure_sealevel;temperature;humidity
58668;BME280;59852;43.086;25.634;2023-04-08T00:01:23;99171.09;;;6.39;69.14
58668;BME280;59852;43.086;25.634;2023-04-08T00:03:49;99174.94;;;6.49;68.76
58668;BME280;59852;43.086;25.634;2023-04-08T00:06:14;99176.25;;;6.57;69.48
58668;BME280;59852;43.086;25.634;2023-04-08T00:08:40;99173.22;;;6.49;69.63
58668;BME280;59852;43.086;25.634;2023-04-08T00:11:05;99179.59;;;6.42;69.48
58668;BME280;59852;43.086;25.634;2023-04-08T00:13:31;99179.94;;;6.53;68.66
58668;BME280;59852;43.086;25.634;2023-04-08T00:15:56;99177.22;;;6.38;68.69
58668;BME280;59852;43.086;25.634;2023-04-08T00:18:21;99175.53;;;6.37;69.81
58668;BME280;59852;43.086;25.634;2023-04-08T00:20:47;99169.47;;;6.55;69.65
58668;BME280;59852;43.086;25.634;2023-04-08T00:23:12;99167.09;;;6.50;69.67
58668;BME280;59852;43.086;25.634;2023-04-08T00:25:37;99168.34;;;6.60;68.89
58668;BME280;59852;43.086;25.634;2023-04-08T00:28:03;99166.69;;;6.58;70.42
58668;BME280;59852;43.086;25.634;2023-04-08T00:30:28;99165.09;;;6.55;69.49
58668;BME280;59852;43.086;25.634;2023-04-08T00:32:53;99161.59;;;6.56;68.56
58668;BME280;59852;43.086;25.634;2023-04-08T00:35:19;99156.66;;;6.69;69.44
58668;BME280;59852;43.086;25.634;2023-04-08T00:37:44;99159.00;;;6.74;68.92
58668;BME280;59852;43.086;25.634;2023-04-08T00:40:10;99160.16;;;6.68;67.99
58668;BME280;59852;43.086;25.634;2023-04-08T00:42:35;99155.75;;;6.70;67.11
58668;BME280;59852;43.086;25.634;2023-04-08T00:45:00;99148.69;;;6.72;67.89
58668;BME280;59852;43.086;25.634;2023-04-08T00:47:26;99146.19;;;6.71;67.87
58668;BME280;59852;43.086;25.634;2023-04-08T00:49:51;99140.72;;;6.75;68.48
58668;BME280;59852;43.086;25.634;2023-04-08T00:52:17;99146.47;;;6.65;67.05
58668;BME280;59852;43.086;25.634;2023-04-08T00:54:42;99145.34;;;6.70;66.44
58668;BME280;59852;43.086;25.634;2023-04-08T00:57:07;99149.63;;;6.71;65.59
58668;BME280;59852;43.086;25.634;2023-04-08T00:59:33;99149.16;;;6.80;66.56
58668;BME280;59852;43.086;25.634;2023-04-08T01:04:46;99150.13;;;6.60;68.11
58668;BME280;59852;43.086;25.634;2023-04-08T01:09:58;99134.31;;;6.65;68.75
58668;BME280;59852;43.086;25.634;2023-04-08T01:12:27;99133.47;;;6.65;65.80
58668;BME280;59852;43.086;25.634;2023-04-08T01:15:02;99131.16;;;6.58;65.68
58668;BME280;59852;43.086;25.634;2023-04-08T01:17:29;99139.31;;;6.70;66.23
58668;BME280;59852;43.086;25.634;2023-04-08T01:19:55;99141.34;;;6.63;66.49
58668;BME280;59852;43.086;25.634;2023-04-08T01:25:08;99141.88;;;6.52;65.79
58668;BME280;59852;43.086;25.634;2023-04-08T01:27:35;99143.94;;;6.63;65.71
58668;BME280;59852;43.086;25.634;2023-04-08T01:30:01;99141.56;;;6.58;66.84
58668;BME280;59852;43.086;25.634;2023-04-08T01:32:27;99142.56;;;6.56;65.99
58668;BME280;59852;43.086;25.634;2023-04-08T01:34:53;99138.72;;;6.46;66.98
58668;BME280;59852;43.086;25.634;2023-04-08T01:37:20;99145.75;;;6.44;68.04
58668;BME280;59852;43.086;25.634;2023-04-08T01:39:46;99134.59;;;6.42;69.11
58668;BME280;59852;43.086;25.634;2023-04-08T01:42:12;99134.94;;;6.34;70.32
58668;BME280;59852;43.086;25.634;2023-04-08T01:44:38;99133.97;;;6.37;70.46
58668;BME280;59852;43.086;25.634;2023-04-08T01:47:04;99132.41;;;6.51;70.35
58668;BME280;59852;43.086;25.634;2023-04-08T01:49:29;99133.38;;;6.49;69.96
58668;BME280;59852;43.086;25.634;2023-04-08T01:51:55;99141.75;;;6.37;69.58
58668;BME280;59852;43.086;25.634;2023-04-08T01:54:22;99139.91;;;6.39;69.82
58668;BME280;59852;43.086;25.634;2023-04-08T01:56:48;99144.50;;;6.33;69.01
58668;BME280;59852;43.086;25.634;2023-04-08T01:59:15;99135.94;;;6.31;69.61
58668;BME280;59852;43.086;25.634;2023-04-08T02:01:41;99142.31;;;6.43;69.59
58668;BME280;59852;43.086;25.634;2023-04-08T02:04:08;99135.63;;;6.20;70.09
58668;BME280;59852;43.086;25.634;2023-04-08T02:06:33;99130.88;;;6.28;70.10
58668;BME280;59852;43.086;25.634;2023-04-08T02:08:59;99132.06;;;6.40;70.08
58668;BME280;59852;43.086;25.634;2023-04-08T02:11:25;99132.19;;;6.37;70.73
58668;BME280;59852;43.086;25.634;2023-04-08T02:13:52;99133.03;;;6.20;71.01
58668;BME280;59852;43.086;25.634;2023-04-08T02:16:22;99126.22;;;5.99;71.51
58668;BME280;59852;43.086;25.634;2023-04-08T02:19:23;99129.31;;;6.07;71.50
58668;BME280;59852;43.086;25.634;2023-04-08T02:21:45;99130.97;;;6.27;71.42
58668;BME280;59852;43.086;25.634;2023-04-08T02:24:11;99127.31;;;6.31;71.68
58668;BME280;59852;43.086;25.634;2023-04-08T02:26:37;99126.28;;;6.16;71.36
58668;BME280;59852;43.086;25.634;2023-04-08T02:29:04;99122.75;;;6.17;70.92
58668;BME280;59852;43.086;25.634;2023-04-08T02:31:30;99122.47;;;6.23;70.40
58668;BME280;59852;43.086;25.634;2023-04-08T02:33:56;99122.19;;;6.29;68.17
58668;BME280;59852;43.086;25.634;2023-04-08T02:36:22;99126.25;;;6.35;66.99
58668;BME280;59852;43.086;25.634;2023-04-08T02:38:50;99117.16;;;6.44;66.25
58668;BME280;59852;43.086;25.634;2023-04-08T02:41:15;99118.94;;;6.43;66.66
58668;BME280;59852;43.086;25.634;2023-04-08T02:43:41;99121.19;;;6.32;67.11
58668;BME280;59852;43.086;25.634;2023-04-08T02:46:06;99118.06;;;6.07;66.82
58668;BME280;59852;43.086;25.634;2023-04-08T02:48:32;99116.47;;;6.40;67.25
58668;BME280;59852;43.086;25.634;2023-04-08T02:50:57;99114.50;;;6.45;67.33
58668;BME280;59852;43.086;25.634;2023-04-08T02:53:23;99129.25;;;6.45;65.74
58668;BME280;59852;43.086;25.634;2023-04-08T02:55:48;99127.31;;;6.48;65.71
58668;BME280;59852;43.086;25.634;2023-04-08T02:58:13;99129.72;;;6.53;65.98
58668;BME280;59852;43.086;25.634;2023-04-08T03:00:39;99126.47;;;6.48;65.47
58668;BME280;59852;43.086;25.634;2023-04-08T03:03:05;99127.78;;;6.39;65.38
58668;BME280;59852;43.086;25.634;2023-04-08T03:05:31;99127.09;;;6.36;66.44
58668;BME280;59852;43.086;25.634;2023-04-08T03:07:57;99122.13;;;6.48;66.88
58668;BME280;59852;43.086;25.634;2023-04-08T03:10:22;99129.09;;;6.48;66.64
58668;BME280;59852;43.086;25.634;2023-04-08T03:12:47;99130.09;;;6.45;66.27
58668;BME280;59852;43.086;25.634;2023-04-08T03:15:13;99131.88;;;6.26;67.19
58668;BME280;59852;43.086;25.634;2023-04-08T03:17:38;99140.31;;;6.12;66.28
58668;BME280;59852;43.086;25.634;2023-04-08T03:20:03;99131.03;;;6.25;67.44
58668;BME280;59852;43.086;25.634;2023-04-08T03:22:30;99129.63;;;6.18;68.75
58668;BME280;59852;43.086;25.634;2023-04-08T03:24:55;99134.06;;;6.16;69.71
58668;BME280;59852;43.086;25.634;2023-04-08T03:27:20;99140.19;;;6.15;69.83
58668;BME280;59852;43.086;25.634;2023-04-08T03:29:46;99140.75;;;6.03;69.71
58668;BME280;59852;43.086;25.634;2023-04-08T03:32:11;99145.88;;;6.04;70.24
58668;BME280;59852;43.086;25.634;2023-04-08T03:34:37;99146.84;;;5.83;71.13
58668;BME280;59852;43.086;25.634;2023-04-08T03:37:02;99145.16;;;6.20;70.69
58668;BME280;59852;43.086;25.634;2023-04-08T03:39:27;99153.56;;;6.25;71.33
58668;BME280;59852;43.086;25.634;2023-04-08T03:41:53;99152.97;;;6.20;71.38
58668;BME280;59852;43.086;25.634;2023-04-08T03:44:18;99148.63;;;6.01;71.53
58668;BME280;59852;43.086;25.634;2023-04-08T03:46:43;99149.66;;;5.97;71.89
58668;BME280;59852;43.086;25.634;2023-04-08T03:49:09;99151.63;;;5.92;72.26
58668;BME280;59852;43.086;25.634;2023-04-08T03:51:34;99157.22;;;5.83;72.21
58668;BME280;59852;43.086;25.634;2023-04-08T03:53:59;99157.13;;;5.85;71.87
58668;BME280;59852;43.086;25.634;2023-04-08T03:56:25;99163.88;;;5.89;71.55
58668;BME280;59852;43.086;25.634;2023-04-08T03:58:50;99156.81;;;5.92;70.99
58668;BME280;59852;43.086;25.634;2023-04-08T04:01:16;99165.16;;;5.99;71.00
58668;BME280;59852;43.086;25.634;2023-04-08T04:03:41;99160.88;;;6.17;70.96
58668;BME280;59852;43.086;25.634;2023-04-08T04:06:06;99169.38;;;6.20;70.26
58668;BME280;59852;43.086;25.634;2023-04-08T04:08:32;99169.59;;;6.16;69.31
58668;BME280;59852;43.086;25.634;2023-04-08T04:10:57;99162.63;;;6.16;68.30
58668;BME280;59852;43.086;25.634;2023-04-08T04:13:23;99172.34;;;6.13;68.90
58668;BME280;59852;43.086;25.634;2023-04-08T04:15:48;99162.44;;;6.21;69.17
58668;BME280;59852;43.086;25.634;2023-04-08T04:18:14;99166.16;;;5.96;69.31
58668;BME280;59852;43.086;25.634;2023-04-08T04:20:40;99172.94;;;5.80;69.97
58668;BME280;59852;43.086;25.634;2023-04-08T04:23:06;99170.34;;;5.99;69.47
58668;BME280;59852;43.086;25.634;2023-04-08T04:25:31;99177.09;;;6.03;69.38
58668;BME280;59852;43.086;25.634;2023-04-08T04:27:57;99183.56;;;6.13;70.17
58668;BME280;59852;43.086;25.634;2023-04-08T04:30:22;99182.91;;;6.08;70.12
58668;BME280;59852;43.086;25.634;2023-04-08T04:32:48;99179.91;;;6.17;70.03
58668;BME280;59852;43.086;25.634;2023-04-08T04:35:13;99189.53;;;6.15;68.49
58668;BME280;59852;43.086;25.634;2023-04-08T04:37:38;99193.59;;;6.21;69.72
58668;BME280;59852;43.086;25.634;2023-04-08T04:40:04;99185.81;;;6.21;69.46
58668;BME280;59852;43.086;25.634;2023-04-08T04:42:30;99185.50;;;6.27;69.85
58668;BME280;59852;43.086;25.634;2023-04-08T04:44:55;99193.72;;;6.18;70.33
58668;BME280;59852;43.086;25.634;2023-04-08T04:47:21;99192.53;;;6.06;71.47
58668;BME280;59852;43.086;25.634;2023-04-08T04:49:46;99190.78;;;6.25;70.74
58668;BME280;59852;43.086;25.634;2023-04-08T04:52:12;99199.97;;;6.14;70.64
58668;BME280;59852;43.086;25.634;2023-04-08T04:54:37;99200.34;;;6.06;71.14
58668;BME280;59852;43.086;25.634;2023-04-08T04:57:02;99197.66;;;6.08;69.91
58668;BME280;59852;43.086;25.634;2023-04-08T04:59:28;99197.59;;;5.90;70.78
58668;BME280;59852;43.086;25.634;2023-04-08T05:01:53;99199.50;;;5.85;72.78
58668;BME280;59852;43.086;25.634;2023-04-08T05:04:21;99195.16;;;5.86;72.61
58668;BME280;59852;43.086;25.634;2023-04-08T05:06:47;99195.69;;;5.94;73.07
58668;BME280;59852;43.086;25.634;2023-04-08T05:09:12;99191.28;;;5.75;73.20
58668;BME280;59852;43.086;25.634;2023-04-08T05:11:37;99197.22;;;5.98;72.81
58668;BME280;59852;43.086;25.634;2023-04-08T05:14:03;99202.34;;;5.99;72.83
58668;BME280;59852;43.086;25.634;2023-04-08T05:16:28;99200.75;;;5.76;74.34
58668;BME280;59852;43.086;25.634;2023-04-08T05:18:53;99199.28;;;5.90;73.42
58668;BME280;59852;43.086;25.634;2023-04-08T05:21:19;99206.09;;;5.94;74.09
58668;BME280;59852;43.086;25.634;2023-04-08T05:23:44;99205.16;;;5.95;74.88
58668;BME280;59852;43.086;25.634;2023-04-08T05:26:09;99205.25;;;6.12;75.10
58668;BME280;59852;43.086;25.634;2023-04-08T05:28:35;99210.53;;;6.11;75.88
58668;BME280;59852;43.086;25.634;2023-04-08T05:31:00;99207.94;;;6.11;75.85
58668;BME280;59852;43.086;25.634;2023-04-08T05:33:25;99211.19;;;5.95;76.22
58668;BME280;59852;43.086;25.634;2023-04-08T05:35:52;99217.38;;;5.93;76.63
58668;BME280;59852;43.086;25.634;2023-04-08T05:38:17;99208.13;;;6.06;76.11
58668;BME280;59852;43.086;25.634;2023-04-08T05:40:43;99210.72;;;6.06;76.31
58668;BME280;59852;43.086;25.634;2023-04-08T05:43:08;99210.22;;;5.98;75.42
58668;BME280;59852;43.086;25.634;2023-04-08T05:45:33;99211.53;;;5.67;76.76
58668;BME280;59852;43.086;25.634;2023-04-08T05:47:59;99209.66;;;5.91;76.46
58668;BME280;59852;43.086;25.634;2023-04-08T05:50:25;99205.09;;;5.96;75.39
58668;BME280;59852;43.086;25.634;2023-04-08T05:52:50;99209.53;;;5.94;75.84
58668;BME280;59852;43.086;25.634;2023-04-08T05:55:15;99217.06;;;5.80;76.70
58668;BME280;59852;43.086;25.634;2023-04-08T05:57:41;99211.97;;;6.16;75.01
58668;BME280;59852;43.086;25.634;2023-04-08T06:00:07;99215.16;;;6.23;75.80
58668;BME280;59852;43.086;25.634;2023-04-08T06:02:33;99214.72;;;6.32;74.27
58668;BME280;59852;43.086;25.634;2023-04-08T06:04:59;99206.50;;;6.22;74.40
58668;BME280;59852;43.086;25.634;2023-04-08T06:07:24;99203.34;;;6.35;74.83
58668;BME280;59852;43.086;25.634;2023-04-08T06:09:50;99209.03;;;6.43;74.59
58668;BME280;59852;43.086;25.634;2023-04-08T06:12:15;99211.13;;;6.16;74.56
58668;BME280;59852;43.086;25.634;2023-04-08T06:14:41;99212.72;;;5.99;75.71
58668;BME280;59852;43.086;25.634;2023-04-08T06:17:06;99217.25;;;6.15;75.10
58668;BME280;59852;43.086;25.634;2023-04-08T06:19:31;99210.34;;;6.51;74.13
58668;BME280;59852;43.086;25.634;2023-04-08T06:21:57;99206.69;;;6.37;73.80
58668;BME280;59852;43.086;25.634;2023-04-08T06:24:23;99207.25;;;6.62;73.09
58668;BME280;59852;43.086;25.634;2023-04-08T06:26:49;99203.72;;;6.63;73.47
58668;BME280;59852;43.086;25.634;2023-04-08T06:29:14;99210.34;;;6.51;74.23
58668;BME280;59852;43.086;25.634;2023-04-08T06:31:39;99216.50;;;6.49;74.39
58668;BME280;59852;43.086;25.634;2023-04-08T06:34:05;99210.56;;;6.83;73.72
58668;BME280;59852;43.086;25.634;2023-04-08T06:36:30;99216.44;;;6.86;73.43
58668;BME280;59852;43.086;25.634;2023-04-08T06:38:56;99220.59;;;6.90;72.51
58668;BME280;59852;43.086;25.634;2023-04-08T06:41:21;99215.44;;;6.72;73.20
58668;BME280;59852;43.086;25.634;2023-04-08T06:43:46;99221.66;;;6.86;72.76
58668;BME280;59852;43.086;25.634;2023-04-08T06:46:11;99220.59;;;7.08;73.02
58668;BME280;59852;43.086;25.634;2023-04-08T06:48:37;99229.75;;;6.98;72.35
58668;BME280;59852;43.086;25.634;2023-04-08T06:51:03;99229.16;;;6.93;72.45
58668;BME280;59852;43.086;25.634;2023-04-08T06:53:28;99226.09;;;6.84;71.57
58668;BME280;59852;43.086;25.634;2023-04-08T06:55:55;99230.69;;;6.97;71.72
58668;BME280;59852;43.086;25.634;2023-04-08T06:58:20;99228.75;;;6.83;71.88
58668;BME280;59852;43.086;25.634;2023-04-08T07:00:46;99234.16;;;6.78;72.42
58668;BME280;59852;43.086;25.634;2023-04-08T07:03:11;99233.09;;;6.27;73.13
58668;BME280;59852;43.086;25.634;2023-04-08T07:05:36;99231.47;;;6.99;72.50
58668;BME280;59852;43.086;25.634;2023-04-08T07:08:02;99228.78;;;7.17;71.07
58668;BME280;59852;43.086;25.634;2023-04-08T07:10:28;99229.88;;;7.13;69.43
58668;BME280;59852;43.086;25.634;2023-04-08T07:12:53;99232.38;;;7.15;68.54
58668;BME280;59852;43.086;25.634;2023-04-08T07:15:18;99233.41;;;7.30;68.99
58668;BME280;59852;43.086;25.634;2023-04-08T07:17:44;99236.53;;;7.02;68.12
58668;BME280;59852;43.086;25.634;2023-04-08T07:20:10;99234.53;;;7.24;68.58
58668;BME280;59852;43.086;25.634;2023-04-08T07:22:36;99231.91;;;7.07;67.87
58668;BME280;59852;43.086;25.634;2023-04-08T07:25:01;99236.97;;;7.27;67.95
58668;BME280;59852;43.086;25.634;2023-04-08T07:27:27;99240.44;;;7.28;67.99
58668;BME280;59852;43.086;25.634;2023-04-08T07:29:52;99234.91;;;7.51;68.16
58668;BME280;59852;43.086;25.634;2023-04-08T07:32:18;99236.72;;;7.66;66.72
58668;BME280;59852;43.086;25.634;2023-04-08T07:34:43;99238.84;;;7.75;67.71
58668;BME280;59852;43.086;25.634;2023-04-08T07:37:09;99243.47;;;7.70;66.88
58668;BME280;59852;43.086;25.634;2023-04-08T07:39:34;99241.75;;;7.87;66.10
58668;BME280;59852;43.086;25.634;2023-04-08T07:42:00;99238.16;;;7.89;66.96
58668;BME280;59852;43.086;25.634;2023-04-08T07:44:25;99238.53;;;7.48;67.49
58668;BME280;59852;43.086;25.634;2023-04-08T07:46:50;99244.59;;;7.82;66.72
58668;BME280;59852;43.086;25.634;2023-04-08T07:49:16;99243.47;;;8.03;66.91
58668;BME280;59852;43.086;25.634;2023-04-08T07:51:41;99245.13;;;8.04;67.02
58668;BME280;59852;43.086;25.634;2023-04-08T07:54:07;99242.16;;;7.79;65.51
58668;BME280;59852;43.086;25.634;2023-04-08T07:56:34;99243.94;;;7.94;66.76
58668;BME280;59852;43.086;25.634;2023-04-08T07:58:59;99243.31;;;8.07;66.06
58668;BME280;59852;43.086;25.634;2023-04-08T08:01:25;99245.16;;;8.20;65.52
58668;BME280;59852;43.086;25.634;2023-04-08T08:03:51;99246.66;;;8.42;65.89
58668;BME280;59852;43.086;25.634;2023-04-08T08:06:17;99243.81;;;8.46;65.66
58668;BME280;59852;43.086;25.634;2023-04-08T08:08:42;99250.09;;;8.42;65.74
58668;BME280;59852;43.086;25.634;2023-04-08T08:11:08;99241.13;;;8.48;65.13
58668;BME280;59852;43.086;25.634;2023-04-08T08:13:33;99245.66;;;8.60;64.78
58668;BME280;59852;43.086;25.634;2023-04-08T08:15:58;99242.38;;;8.56;64.41
58668;BME280;59852;43.086;25.634;2023-04-08T08:18:24;99242.94;;;8.77;64.81
58668;BME280;59852;43.086;25.634;2023-04-08T08:20:49;99242.91;;;8.93;64.29
58668;BME280;59852;43.086;25.634;2023-04-08T08:23:14;99239.78;;;8.56;64.81
58668;BME280;59852;43.086;25.634;2023-04-08T08:25:40;99232.94;;;8.85;64.67
58668;BME280;59852;43.086;25.634;2023-04-08T08:28:06;99227.41;;;9.06;63.98
58668;BME280;59852;43.086;25.634;2023-04-08T08:30:31;99230.19;;;9.33;65.57
58668;BME280;59852;43.086;25.634;2023-04-08T08:32:57;99231.72;;;9.51;63.51
58668;BME280;59852;43.086;25.634;2023-04-08T08:35:24;99222.25;;;9.64;66.09
58668;BME280;59852;43.086;25.634;2023-04-08T08:37:49;99222.44;;;9.75;62.71
58668;BME280;59852;43.086;25.634;2023-04-08T08:40:14;99221.66;;;9.59;62.30
58668;BME280;59852;43.086;25.634;2023-04-08T08:42:40;99223.19;;;9.77;62.20
58668;BME280;59852;43.086;25.634;2023-04-08T08:45:06;99219.25;;;9.56;62.96
58668;BME280;59852;43.086;25.634;2023-04-08T08:47:32;99221.88;;;9.85;61.82
58668;BME280;59852;43.086;25.634;2023-04-08T08:49:57;99220.84;;;10.01;62.93
58668;BME280;59852;43.086;25.634;2023-04-08T08:52:23;99228.78;;;10.00;61.29
58668;BME280;59852;43.086;25.634;2023-04-08T08:54:55;99225.78;;;10.06;61.58
58668;BME280;59852;43.086;25.634;2023-04-08T08:57:21;99231.75;;;10.08;60.06
58668;BME280;59852;43.086;25.634;2023-04-08T08:59:47;99225.91;;;10.04;59.70
58668;BME280;59852;43.086;25.634;2023-04-08T09:04:57;99230.25;;;9.90;60.38
58668;BME280;59852;43.086;25.634;2023-04-08T09:07:23;99229.16;;;10.08;60.04
58668;BME280;59852;43.086;25.634;2023-04-08T09:09:50;99233.63;;;10.06;59.93
58668;BME280;59852;43.086;25.634;2023-04-08T09:12:15;99238.41;;;10.14;60.07
58668;BME280;59852;43.086;25.634;2023-04-08T09:14:41;99234.72;;;10.02;59.38
58668;BME280;59852;43.086;25.634;2023-04-08T09:17:06;99232.22;;;10.15;58.46
58668;BME280;59852;43.086;25.634;2023-04-08T09:19:32;99231.28;;;10.44;59.51
58668;BME280;59852;43.086;25.634;2023-04-08T09:22:04;99219.75;;;10.61;58.14
58668;BME280;59852;43.086;25.634;2023-04-08T09:24:30;99228.72;;;10.57;57.28
58668;BME280;59852;43.086;25.634;2023-04-08T09:26:56;99231.25;;;10.58;58.25
58668;BME280;59852;43.086;25.634;2023-04-08T09:29:22;99227.41;;;10.64;58.20
58668;BME280;59852;43.086;25.634;2023-04-08T09:31:48;99226.00;;;10.73;58.17
58668;BME280;59852;43.086;25.634;2023-04-08T09:34:17;99219.50;;;10.78;58.49
58668;BME280;59852;43.086;25.634;2023-04-08T09:36:47;99216.19;;;10.89;58.08
58668;BME280;59852;43.086;25.634;2023-04-08T09:39:13;99221.53;;;10.87;57.83
58668;BME280;59852;43.086;25.634;2023-04-08T09:41:38;99211.84;;;11.02;57.50
58668;BME280;59852;43.086;25.634;2023-04-08T09:44:05;99213.09;;;10.97;57.58
58668;BME280;59852;43.086;25.634;2023-04-08T09:49:02;99207.38;;;11.17;56.92
58668;BME280;59852;43.086;25.634;2023-04-08T09:51:31;99213.16;;;11.22;56.17
58668;BME280;59852;43.086;25.634;2023-04-08T09:54:01;99213.69;;;11.27;57.03
58668;BME280;59852;43.086;25.634;2023-04-08T09:56:29;99211.28;;;11.37;55.77
58668;BME280;59852;43.086;25.634;2023-04-08T09:59:01;99214.13;;;11.59;56.01
58668;BME280;59852;43.086;25.634;2023-04-08T10:01:34;99207.97;;;11.60;55.94
58668;BME280;59852;43.086;25.634;2023-04-08T10:04:01;99216.44;;;11.51;57.10
58668;BME280;59852;43.086;25.634;2023-04-08T10:06:29;99215.47;;;11.27;56.65
58668;BME280;59852;43.086;25.634;2023-04-08T10:08:55;99213.88;;;11.11;56.97
58668;BME280;59852;43.086;25.634;2023-04-08T10:11:20;99211.31;;;11.10;58.33
58668;BME280;59852;43.086;25.634;2023-04-08T10:13:46;99211.97;;;11.13;59.29
58668;BME280;59852;43.086;25.634;2023-04-08T10:18:41;99207.25;;;11.06;59.36
58668;BME280;59852;43.086;25.634;2023-04-08T10:23:53;99214.22;;;10.93;59.37
58668;BME280;59852;43.086;25.634;2023-04-08T10:26:29;99222.25;;;10.89;60.06
58668;BME280;59852;43.086;25.634;2023-04-08T10:28:57;99221.44;;;10.62;60.77
58668;BME280;59852;43.086;25.634;2023-04-08T10:31:41;99216.34;;;10.73;61.35
58668;BME280;59852;43.086;25.634;2023-04-08T10:34:16;99212.38;;;10.80;61.17
58668;BME280;59852;43.086;25.634;2023-04-08T10:36:42;99211.31;;;10.70;59.95
58668;BME280;59852;43.086;25.634;2023-04-08T10:39:08;99214.38;;;10.77;60.04
58668;BME280;59852;43.086;25.634;2023-04-08T10:41:33;99214.50;;;10.88;59.52
58668;BME280;59852;43.086;25.634;2023-04-08T10:44:02;99199.38;;;11.06;59.69
58668;BME280;59852;43.086;25.634;2023-04-08T10:46:27;99197.97;;;10.87;58.54
58668;BME280;59852;43.086;25.634;2023-04-08T10:48:59;99201.66;;;10.98;58.72
58668;BME280;59852;43.086;25.634;2023-04-08T10:51:29;99193.28;;;10.93;59.12
58668;BME280;59852;43.086;25.634;2023-04-08T10:53:55;99200.44;;;11.03;59.30
58668;BME280;59852;43.086;25.634;2023-04-08T10:56:29;99201.66;;;10.98;59.07
58668;BME280;59852;43.086;25.634;2023-04-08T10:58:54;99194.78;;;11.09;60.11
58668;BME280;59852;43.086;25.634;2023-04-08T11:01:23;99195.22;;;11.03;59.23
58668;BME280;59852;43.086;25.634;2023-04-08T11:03:48;99197.72;;;11.05;58.71
58668;BME280;59852;43.086;25.634;2023-04-08T11:06:14;99193.66;;;11.13;58.83
58668;BME280;59852;43.086;25.634;2023-04-08T11:08:39;99197.00;;;11.15;58.66
58668;BME280;59852;43.086;25.634;2023-04-08T11:11:05;99194.81;;;11.22;58.53
58668;BME280;59852;43.086;25.634;2023-04-08T11:13:36;99190.00;;;11.16;57.56
58668;BME280;59852;43.086;25.634;2023-04-08T11:16:02;99196.16;;;11.15;58.64
58668;BME280;59852;43.086;25.634;2023-04-08T11:18:29;99193.00;;;11.10;57.91
58668;BME280;59852;43.086;25.634;2023-04-08T11:20:55;99187.88;;;11.08;58.65
58668;BME280;59852;43.086;25.634;2023-04-08T11:23:21;99186.94;;;11.09;58.34
58668;BME280;59852;43.086;25.634;2023-04-08T11:25:48;99183.38;;;11.10;58.66
58668;BME280;59852;43.086;25.634;2023-04-08T11:28:14;99182.69;;;11.21;59.55
58668;BME280;59852;43.086;25.634;2023-04-08T11:30:41;99171.34;;;11.20;57.95
58668;BME280;59852;43.086;25.634;2023-04-08T11:33:07;99175.34;;;11.26;58.03
58668;BME280;59852;43.086;25.634;2023-04-08T11:35:32;99178.78;;;11.27;57.53
58668;BME280;59852;43.086;25.634;2023-04-08T11:37:58;99170.53;;;11.33;57.73
58668;BME280;59852;43.086;25.634;2023-04-08T11:40:23;99172.31;;;11.32;57.61
58668;BME280;59852;43.086;25.634;2023-04-08T11:42:50;99166.88;;;11.35;57.79
58668;BME280;59852;43.086;25.634;2023-04-08T11:45:16;99170.94;;;11.39;57.87
58668;BME280;59852;43.086;25.634;2023-04-08T11:47:42;99176.41;;;11.36;57.32
58668;BME280;59852;43.086;25.634;2023-04-08T11:50:08;99166.25;;;11.32;57.00
58668;BME280;59852;43.086;25.634;2023-04-08T11:52:46;99166.31;;;11.30;56.32
58668;BME280;59852;43.086;25.634;2023-04-08T11:55:22;99160.91;;;11.33;57.22
58668;BME280;59852;43.086;25.634;2023-04-08T11:57:48;99160.34;;;11.28;56.61
58668;BME280;59852;43.086;25.634;2023-04-08T12:00:13;99155.44;;;11.36;57.07
58668;BME280;59852;43.086;25.634;2023-04-08T12:02:39;99156.59;;;11.45;58.68
58668;BME280;59852;43.086;25.634;2023-04-08T12:05:05;99151.56;;;11.55;57.80
58668;BME280;59852;43.086;25.634;2023-04-08T12:07:30;99152.53;;;11.54;56.96
58668;BME280;59852;43.086;25.634;2023-04-08T12:09:56;99152.31;;;11.57;57.34
58668;BME280;59852;43.086;25.634;2023-04-08T12:12:21;99149.38;;;11.61;57.08
58668;BME280;59852;43.086;25.634;2023-04-08T12:14:47;99142.16;;;11.52;57.18
58668;BME280;59852;43.086;25.634;2023-04-08T12:17:12;99151.16;;;11.48;56.57
58668;BME280;59852;43.086;25.634;2023-04-08T12:19:37;99154.50;;;11.37;56.75
58668;BME280;59852;43.086;25.634;2023-04-08T12:22:03;99149.16;;;11.52;55.26
58668;BME280;59852;43.086;25.634;2023-04-08T12:24:28;99149.91;;;11.54;55.81
58668;BME280;59852;43.086;25.634;2023-04-08T12:26:53;99146.44;;;11.53;54.89
58668;BME280;59852;43.086;25.634;2023-04-08T12:29:20;99157.84;;;11.65;55.69
58668;BME280;59852;43.086;25.634;2023-04-08T12:31:45;99147.56;;;11.74;55.94
58668;BME280;59852;43.086;25.634;2023-04-08T12:34:11;99152.94;;;11.73;54.87
58668;BME280;59852;43.086;25.634;2023-04-08T12:36:36;99142.78;;;11.81;55.25
58668;BME280;59852;43.086;25.634;2023-04-08T12:39:02;99143.94;;;11.90;55.54
58668;BME280;59852;43.086;25.634;2023-04-08T12:41:27;99145.91;;;11.86;53.87
58668;BME280;59852;43.086;25.634;2023-04-08T12:43:53;99143.41;;;11.85;54.92
58668;BME280;59852;43.086;25.634;2023-04-08T12:46:18;99140.13;;;11.68;53.87
58668;BME280;59852;43.086;25.634;2023-04-08T12:48:43;99135.84;;;11.67;54.12
58668;BME280;59852;43.086;25.634;2023-04-08T12:51:09;99137.00;;;11.63;54.51
58668;BME280;59852;43.086;25.634;2023-04-08T12:53:34;99136.47;;;11.58;53.69
58668;BME280;59852;43.086;25.634;2023-04-08T12:56:00;99140.56;;;11.62;54.70
58668;BME280;59852;43.086;25.634;2023-04-08T12:58:25;99145.47;;;11.67;54.44
58668;BME280;59852;43.086;25.634;2023-04-08T13:00:51;99150.75;;;11.54;54.60
58668;BME280;59852;43.086;25.634;2023-04-08T13:03:16;99142.44;;;11.47;54.38
58668;BME280;59852;43.086;25.634;2023-04-08T13:05:42;99138.50;;;11.42;54.11
58668;BME280;59852;43.086;25.634;2023-04-08T13:08:07;99135.44;;;11.48;55.63
58668;BME280;59852;43.086;25.634;2023-04-08T13:10:32;99139.84;;;11.47;56.07